Time;durP1;ratioP1;P1;durP2;ratioP2;P2;SDS_P1;SDS_P2;PMS_P1;PMS_P2;Temp;Humidity;BMP_temperature;BMP_pressure;BME280_temperature;BME280_humidity;BME280_pressure;Samples;Min_cycle;Max_cycle;Signal;HPM_P1;HPM_P2
2023/05/14 00:01:35;;;;;;;3.63;2.90;;;;;;;15.70;58.24;100113.25;5014439;28;20757;-71
2023/05/14 00:04:01;;;;;;;5.53;2.90;;;;;;;15.76;57.94;100113.22;5021216;28;20202;-70
2023/05/14 00:06:28;;;;;;;4.60;3.03;;;;;;;15.83;57.65;100107.81;5034420;28;20205;-70
2023/05/14 00:08:56;;;;;;;3.20;2.73;;;;;;;15.82;57.82;100109.66;5033084;28;20198;-70
2023/05/14 00:11:22;;;;;;;3.67;3.13;;;;;;;15.73;57.64;100102.91;5034406;28;20276;-70
2023/05/14 00:13:51;;;;;;;3.30;3.10;;;;;;;15.64;58.06;100098.84;5034310;28;20228;-69
2023/05/14 00:16:17;;;;;;;2.80;2.67;;;;;;;15.72;58.25;100089.72;5017710;28;20201;-72
2023/05/14 00:18:44;;;;;;;3.27;3.00;;;;;;;15.73;58.09;100102.91;5033719;28;20627;-70
2023/05/14 00:21:11;;;;;;;3.43;3.13;;;;;;;15.71;58.13;100098.81;5034144;28;20189;-70
2023/05/14 00:23:38;;;;;;;3.20;3.00;;;;;;;15.74;57.84;100101.91;5033995;28;20578;-71
2023/05/14 00:26:05;;;;;;;2.93;2.83;;;;;;;15.68;58.04;100093.88;5034206;28;20259;-70
2023/05/14 00:28:31;;;;;;;3.23;2.90;;;;;;;15.45;58.62;100098.94;5015358;28;20256;-70
2023/05/14 00:31:00;;;;;;;2.80;2.60;;;;;;;15.31;59.34;100095.47;5014299;28;20812;-70
2023/05/14 00:33:26;;;;;;;3.73;3.33;;;;;;;15.23;59.87;100100.22;5014174;28;20225;-70
2023/05/14 00:35:53;;;;;;;2.67;2.57;;;;;;;15.22;60.18;100104.75;5014066;28;20229;-69
2023/05/14 00:38:20;;;;;;;3.60;2.70;;;;;;;15.29;60.44;100099.38;5013083;28;20662;-70
2023/05/14 00:40:50;;;;;;;3.17;2.97;;;;;;;15.37;60.35;100105.38;5031636;28;20194;-73
2023/05/14 00:43:17;;;;;;;2.83;2.63;;;;;;;15.15;60.69;100098.59;5033541;28;20719;-70
2023/05/14 00:45:44;;;;;;;2.93;2.57;;;;;;;15.14;60.95;100088.09;5033800;28;20691;-70
2023/05/14 00:48:13;;;;;;;5.10;2.90;;;;;;;15.12;61.05;100085.63;5033741;28;20276;-70
2023/05/14 00:50:40;;;;;;;3.20;3.00;;;;;;;15.18;61.11;100084.81;5031804;28;20201;-70
2023/05/14 00:53:09;;;;;;;3.10;2.80;;;;;;;15.12;61.72;100069.56;5013544;28;20244;-70
2023/05/14 00:55:37;;;;;;;3.27;3.00;;;;;;;15.09;61.62;100072.69;5013380;28;20256;-71
2023/05/14 00:58:07;;;;;;;3.30;2.53;;;;;;;14.96;62.41;100063.88;5013893;28;20194;-71
2023/05/14 01:00:34;;;;;;;3.03;2.80;;;;;;;14.75;63.30;100058.78;5013375;28;20198;-70
2023/05/14 01:03:01;;;;;;;4.53;2.93;;;;;;;14.75;63.58;100058.78;5014793;28;20236;-71
2023/05/14 01:05:39;;;;;;;5.33;3.80;;;;;;;14.90;62.81;100060.19;5014945;28;20280;-70
2023/05/14 01:08:13;;;;;;;5.10;3.43;;;;;;;14.99;62.27;100066.16;5013640;28;20242;-70
2023/05/14 01:10:49;;;;;;;3.20;3.00;;;;;;;14.92;62.87;100059.97;5013615;28;20178;-71
2023/05/14 01:13:23;;;;;;;4.57;3.33;;;;;;;15.03;62.82;100062.81;5030045;28;20266;-71
2023/05/14 01:15:50;;;;;;;3.80;3.40;;;;;;;15.12;62.68;100058.88;5032531;28;20699;-71
2023/05/14 01:18:18;;;;;;;3.50;3.20;;;;;;;15.08;61.51;100044.28;5032943;28;20259;-72
2023/05/14 01:20:51;;;;;;;3.40;3.20;;;;;;;15.06;62.18;100051.69;5032759;28;20255;-72
2023/05/14 01:23:19;;;;;;;5.53;3.30;;;;;;;15.09;62.12;100040.59;5015673;28;20201;-71
2023/05/14 01:25:45;;;;;;;4.73;3.67;;;;;;;15.01;62.08;100046.16;5013207;28;20233;-71
2023/05/14 01:28:17;;;;;;;5.00;3.70;;;;;;;14.90;62.67;100043.31;5013019;28;20198;-70
2023/05/14 01:30:48;;;;;;;4.90;4.03;;;;;;;14.78;63.39;100043.13;5021480;28;20308;-71
2023/05/14 01:33:17;;;;;;;3.87;3.57;;;;;;;14.94;63.52;100053.38;5032541;28;20187;-70
2023/05/14 01:35:45;;;;;;;3.87;3.47;;;;;;;15.08;62.87;100056.84;5032710;28;20225;-70
2023/05/14 01:38:14;;;;;;;4.10;3.70;;;;;;;14.96;63.21;100055.84;5032450;28;20736;-71
2023/05/14 01:40:42;;;;;;;3.87;3.57;;;;;;;14.96;63.06;100051.31;5023113;28;20232;-71
2023/05/14 01:43:09;;;;;;;4.07;3.80;;;;;;;14.82;62.52;100043.53;5012957;28;20256;-70
2023/05/14 01:45:36;;;;;;;5.03;3.73;;;;;;;14.57;63.85;100035.38;5012863;28;20194;-71
2023/05/14 01:48:04;;;;;;;4.83;3.83;;;;;;;14.56;63.40;100031.06;5012836;28;20641;-71
2023/05/14 01:50:31;;;;;;;3.87;3.67;;;;;;;14.47;63.87;100039.50;5031910;28;20197;-70
2023/05/14 01:52:57;;;;;;;4.10;3.60;;;;;;;14.52;64.29;100035.19;5032491;28;20255;-70
2023/05/14 01:55:25;;;;;;;4.43;3.60;;;;;;;14.64;63.77;100036.19;5032555;28;20689;-70
2023/05/14 01:57:53;;;;;;;6.40;3.57;;;;;;;14.51;63.62;100028.19;5030892;28;20194;-72
2023/05/14 02:00:25;;;;;;;7.97;3.40;;;;;;;14.60;62.66;100024.25;5012983;28;20260;-72
2023/05/14 02:02:51;;;;;;;5.47;3.40;;;;;;;14.03;64.68;100018.72;5012685;28;20190;-68
2023/05/14 02:05:18;;;;;;;3.77;3.43;;;;;;;14.23;63.75;100030.28;5029488;28;20197;-68
2023/05/14 02:07:45;;;;;;;3.30;3.10;;;;;;;14.41;63.15;100029.63;5032258;28;20201;-69
2023/05/14 02:10:12;;;;;;;6.77;3.87;;;;;;;14.47;62.96;100037.66;5030465;28;20201;-69
2023/05/14 02:12:38;;;;;;;4.27;3.87;;;;;;;14.21;63.87;100034.19;5032239;28;20197;-69
2023/05/14 02:15:09;;;;;;;3.80;3.50;;;;;;;14.27;63.83;100039.53;5031051;28;20279;-70
2023/05/14 02:17:36;;;;;;;6.40;5.80;;;;;;;14.14;64.55;100039.47;5032282;28;20186;-69
2023/05/14 02:20:03;;;;;;;6.30;5.70;;;;;;;14.17;64.25;100039.06;5031866;28;20200;-68
2023/05/14 02:22:30;;;;;;;5.77;5.37;;;;;;;14.24;63.52;100052.44;5028176;28;20205;-70
2023/05/14 02:24:57;;;;;;;7.00;5.70;;;;;;;14.24;63.17;100050.63;5012532;28;20193;-68
2023/05/14 02:27:23;;;;;;;5.77;5.33;;;;;;;13.94;64.88;100053.84;5012547;28;20198;-69
2023/05/14 02:29:50;;;;;;;5.10;4.70;;;;;;;13.94;64.86;100046.69;5012332;28;20233;-69
2023/05/14 02:32:18;;;;;;;6.00;4.37;;;;;;;13.94;65.11;100038.66;5011964;28;20987;-68
2023/05/14 02:34:45;;;;;;;5.73;4.00;;;;;;;13.97;65.13;100042.78;5016170;28;20209;-69
2023/05/14 02:37:11;;;;;;;5.30;3.80;;;;;;;14.09;64.79;100039.28;5031647;28;20641;-69
2023/05/14 02:39:38;;;;;;;4.63;3.37;;;;;;;14.14;64.54;100036.78;5032055;28;20193;-68
2023/05/14 02:42:05;;;;;;;4.00;3.70;;;;;;;14.17;63.83;100036.41;5031964;28;20189;-68
2023/05/14 02:44:32;;;;;;;4.57;3.37;;;;;;;14.16;64.06;100033.91;5032218;28;20201;-69
2023/05/14 02:46:59;;;;;;;6.87;3.20;;;;;;;14.19;63.52;100045.03;5024346;28;20198;-69
2023/05/14 02:49:27;;;;;;;4.67;3.30;;;;;;;14.17;63.86;100059.63;5012391;28;20575;-69
2023/05/14 02:51:54;;;;;;;5.33;3.23;;;;;;;14.22;64.01;100062.53;5012009;28;20198;-69
2023/05/14 02:54:20;;;;;;;3.60;3.40;;;;;;;14.26;63.49;100080.59;5012103;28;20284;-69
2023/05/14 02:56:47;;;;;;;5.73;3.83;;;;;;;14.34;63.01;100084.94;5029033;28;20726;-71
2023/05/14 02:59:14;;;;;;;3.60;3.40;;;;;;;14.41;63.10;100078.56;5031919;28;20248;-69
2023/05/14 03:01:41;;;;;;;3.60;3.40;;;;;;;14.49;62.67;100089.06;5034888;28;20216;-70
2023/05/14 03:04:08;;;;;;;3.63;3.43;;;;;;;14.46;62.13;100091.31;5027866;28;20732;-70
2023/05/14 03:06:36;;;;;;;3.77;3.47;;;;;;;14.36;62.78;100099.75;5032130;28;20197;-70
2023/05/14 03:09:03;;;;;;;3.60;3.30;;;;;;;14.41;62.41;100099.94;5034195;28;20202;-70
2023/05/14 03:11:29;;;;;;;4.10;3.70;;;;;;;14.36;62.88;100102.44;5035314;28;20782;-70
2023/05/14 03:13:56;;;;;;;4.73;4.43;;;;;;;14.07;63.73;100101.94;5028300;28;20198;-70
2023/05/14 03:16:23;;;;;;;4.40;4.00;;;;;;;13.89;64.86;100088.38;5015233;28;20655;-70
2023/05/14 03:18:49;;;;;;;5.40;4.97;;;;;;;13.97;65.08;100086.31;5015589;28;20194;-70
2023/05/14 03:21:16;;;;;;;4.63;4.23;;;;;;;14.04;64.18;100081.81;5015449;28;20194;-70
2023/05/14 03:23:44;;;;;;;4.67;4.30;;;;;;;14.00;64.81;100091.25;5018970;28;20204;-70
2023/05/14 03:26:11;;;;;;;5.40;4.47;;;;;;;14.06;65.15;100085.13;5035311;28;20209;-69
2023/05/14 03:28:38;;;;;;;5.17;4.57;;;;;;;14.18;64.31;100094.13;5034901;28;20618;-69
2023/05/14 03:31:05;;;;;;;5.40;4.90;;;;;;;14.19;64.16;100095.81;5034408;28;20229;-70
2023/05/14 03:33:31;;;;;;;5.20;4.60;;;;;;;14.20;64.69;100086.75;5034839;28;20198;-70
2023/05/14 03:35:58;;;;;;;6.17;4.83;;;;;;;14.29;64.19;100096.25;5028443;28;20652;-71
2023/05/14 03:38:25;;;;;;;4.67;4.47;;;;;;;14.31;63.82;100098.72;5014871;28;20190;-70
2023/05/14 03:40:53;;;;;;;6.70;5.20;;;;;;;14.31;64.47;100104.91;5014806;28;20249;-73
2023/05/14 03:43:19;;;;;;;5.00;4.60;;;;;;;14.39;64.19;100114.56;5033543;28;20205;-70
2023/05/14 03:45:51;;;;;;;5.17;4.53;;;;;;;14.45;64.41;100113.72;5034912;28;20719;-69
2023/05/14 03:48:17;;;;;;;4.63;4.23;;;;;;;14.44;64.32;100115.59;5034636;28;20228;-70
2023/05/14 03:50:44;;;;;;;4.67;3.63;;;;;;;14.27;64.93;100105.50;5033434;28;20287;-70
2023/05/14 03:53:11;;;;;;;6.60;3.90;;;;;;;14.27;65.31;100108.16;5033659;28;20193;-70
2023/05/14 03:55:38;;;;;;;4.23;3.87;;;;;;;14.33;64.89;100102.81;5034666;28;20217;-69
2023/05/14 03:58:12;;;;;;;4.27;3.87;;;;;;;14.40;64.95;100098.31;5034334;28;20657;-69
2023/05/14 04:00:39;;;;;;;4.70;4.20;;;;;;;14.49;64.72;100102.41;5024926;28;20197;-70
2023/05/14 04:03:06;;;;;;;4.03;3.53;;;;;;;14.56;64.62;100097.91;5014340;28;20194;-71
2023/05/14 04:05:32;;;;;;;6.23;3.87;;;;;;;14.58;64.95;100101.16;5033556;28;20201;-70
2023/05/14 04:07:59;;;;;;;6.33;3.90;;;;;;;14.69;64.59;100103.22;5034369;28;20201;-70
2023/05/14 04:10:26;;;;;;;3.63;3.23;;;;;;;14.61;64.20;100092.75;5032872;28;20197;-70
2023/05/14 04:12:54;;;;;;;4.53;3.63;;;;;;;14.76;64.61;100109.41;5033765;28;20266;-69
2023/05/14 04:15:22;;;;;;;5.13;3.30;;;;;;;14.85;64.47;100107.31;5034145;28;20221;-71
2023/05/14 04:17:49;;;;;;;4.20;3.80;;;;;;;14.88;64.60;100107.75;5033633;28;20641;-75
2023/05/14 04:20:15;;;;;;;7.77;3.90;;;;;;;14.87;64.93;100111.41;5033962;28;20267;-72
2023/05/14 04:22:42;;;;;;;3.53;3.33;;;;;;;14.99;67.63;100115.09;5032473;28;20201;-72
2023/05/14 04:25:09;;;;;;;4.00;3.30;;;;;;;15.22;66.30;100114.63;5034077;28;20201;-73
2023/05/14 04:27:36;;;;;;;3.70;3.40;;;;;;;15.22;64.57;100098.56;5034052;28;20194;-72
2023/05/14 04:30:03;;;;;;;3.87;3.30;;;;;;;15.36;64.13;100106.38;5033995;28;20268;-76
2023/05/14 04:32:31;;;;;;;5.90;3.77;;;;;;;15.51;64.02;100098.91;5033637;28;20196;-74
2023/05/14 04:34:58;;;;;;;5.07;3.60;;;;;;;15.65;64.05;100105.84;5022521;28;20194;-74
2023/05/14 04:37:24;;;;;;;5.03;3.50;;;;;;;15.79;63.79;100110.09;5013878;28;20621;-72
2023/05/14 04:39:51;;;;;;;4.07;3.77;;;;;;;16.00;63.11;100116.19;5013690;28;20204;-72
2023/05/14 04:42:18;;;;;;;4.27;3.97;;;;;;;16.18;62.86;100125.13;5013732;28;20668;-72
2023/05/14 04:44:45;;;;;;;4.40;3.50;;;;;;;15.86;63.31;100136.88;5013893;28;20197;-74
2023/05/14 04:47:11;;;;;;;4.17;3.77;;;;;;;15.92;63.62;100157.44;5023164;28;20588;-73
2023/05/14 04:49:39;;;;;;;3.77;3.57;;;;;;;16.02;63.14;100148.94;5033778;28;20259;-72
2023/05/14 04:52:06;;;;;;;4.47;4.17;;;;;;;15.91;63.50;100145.06;5033633;28;20255;-74
2023/05/14 04:54:33;;;;;;;5.97;4.23;;;;;;;16.00;64.54;100145.66;5033338;28;20723;-74
2023/05/14 04:57:02;;;;;;;4.50;4.10;;;;;;;16.07;64.13;100135.69;5033554;28;20225;-73
2023/05/14 04:59:28;;;;;;;5.17;4.33;;;;;;;15.94;64.25;100117.84;5020708;28;20674;-73
2023/05/14 05:01:55;;;;;;;5.60;4.47;;;;;;;16.00;64.69;100118.84;5013814;28;20198;-73
2023/05/14 05:04:22;;;;;;;7.13;5.03;;;;;;;16.04;64.22;100104.00;5022444;28;20649;-69
2023/05/14 05:06:50;;;;;;;4.20;4.00;;;;;;;16.11;64.38;100116.31;5032350;28;20247;-68
2023/05/14 05:09:17;;;;;;;5.00;4.10;;;;;;;16.14;64.18;100139.16;5032946;28;20279;-68
2023/05/14 05:11:44;;;;;;;4.80;4.33;;;;;;;16.10;63.59;100148.66;5033017;28;20230;-68
2023/05/14 05:14:11;;;;;;;5.63;4.20;;;;;;;16.02;63.57;100123.75;5032913;28;20669;-69
2023/05/14 05:16:37;;;;;;;5.10;4.00;;;;;;;16.07;63.09;100130.34;5021202;28;20225;-68
2023/05/14 05:19:04;;;;;;;5.80;4.63;;;;;;;15.71;64.48;100114.88;5024198;28;20201;-68
2023/05/14 05:21:31;;;;;;;5.53;4.77;;;;;;;15.83;64.39;100118.53;5016948;28;20194;-68
2023/05/14 05:23:59;;;;;;;9.47;3.20;;;;;;;15.96;72.54;100123.81;5012489;28;20248;-69
2023/05/14 05:26:26;;;;;;;6.07;4.97;;;;;;;16.22;67.15;100133.53;5012973;28;20233;-77
2023/05/14 05:28:53;;;;;;;4.37;3.97;;;;;;;16.56;68.92;100141.97;5012935;28;20190;-79
2023/05/14 05:31:20;;;;;;;4.77;4.27;;;;;;;16.86;68.51;100144.84;5013209;28;20198;-66
2023/05/14 05:33:47;;;;;;;4.97;3.80;;;;;;;17.21;65.47;100144.06;5012901;28;20195;-71
2023/05/14 05:36:14;;;;;;;5.67;3.03;;;;;;;17.50;68.74;100137.16;5012648;28;20226;-67
2023/05/14 05:38:41;;;;;;;3.97;3.00;;;;;;;17.89;70.04;100136.66;5013088;28;20198;-68
2023/05/14 05:41:09;;;;;;;6.00;3.07;;;;;;;18.27;63.86;100159.47;5017356;28;20247;-68
2023/05/14 05:43:35;;;;;;;4.90;4.50;;;;;;;18.39;56.87;100173.81;5032706;28;20247;-75
2023/05/14 05:46:02;;;;;;;11.20;4.13;;;;;;;18.33;56.84;100168.50;5032564;28;20208;-78
2023/05/14 05:48:29;;;;;;;5.77;4.20;;;;;;;18.20;56.98;100164.13;5032960;28;20202;-74
2023/05/14 05:50:55;;;;;;;3.80;3.50;;;;;;;18.17;57.36;100159.19;5032609;28;20206;-74
2023/05/14 05:53:22;;;;;;;7.27;3.77;;;;;;;18.21;57.27;100164.97;5030425;28;20258;-74
2023/05/14 05:55:50;;;;;;;8.97;4.20;;;;;;;18.05;57.78;100169.09;5032384;28;20275;-76
2023/05/14 05:58:18;;;;;;;4.50;4.07;;;;;;;18.01;57.48;100178.66;5032059;28;20190;-76
2023/05/14 06:00:45;;;;;;;4.00;3.57;;;;;;;18.00;57.20;100189.63;5031929;28;20190;-75
2023/05/14 06:03:13;;;;;;;3.87;3.50;;;;;;;18.01;57.28;100196.66;5032235;28;20201;-75
2023/05/14 06:05:40;;;;;;;4.57;4.17;;;;;;;17.99;56.90;100198.75;5012629;28;20584;-75
2023/05/14 06:08:06;;;;;;;5.07;4.57;;;;;;;17.97;57.27;100208.91;5012121;28;20198;-73
2023/05/14 06:10:33;;;;;;;4.63;4.10;;;;;;;17.91;58.29;100207.13;5012371;28;20207;-75
2023/05/14 06:13:00;;;;;;;3.60;3.23;;;;;;;17.86;57.46;100209.66;5012012;28;20281;-76
2023/05/14 06:15:28;;;;;;;5.27;4.23;;;;;;;17.86;57.83;100209.66;5027858;28;20197;-75
2023/05/14 06:17:55;;;;;;;4.63;4.33;;;;;;;17.85;57.99;100203.47;5020828;28;20195;-74
2023/05/14 06:20:21;;;;;;;5.00;3.90;;;;;;;17.81;57.75;100209.53;5011669;28;20260;-73
2023/05/14 06:22:48;;;;;;;7.23;3.93;;;;;;;17.73;57.85;100212.53;5013963;28;20205;-74
2023/05/14 06:25:15;;;;;;;5.37;4.97;;;;;;;17.64;57.67;100200.44;5029459;28;20201;-73
2023/05/14 06:27:42;;;;;;;12.40;11.20;;;;;;;17.69;58.63;100224.75;5030932;28;20453;-74
2023/05/14 06:30:10;;;;;;;7.93;5.63;;;;;;;17.76;57.82;100230.91;5031776;28;20226;-74
2023/05/14 06:32:38;;;;;;;5.10;4.60;;;;;;;17.67;59.25;100221.47;5028809;28;20200;-74
2023/05/14 06:35:06;;;;;;;5.50;4.50;;;;;;;17.54;59.14;100235.03;5013847;28;20666;-74
2023/05/14 06:37:32;;;;;;;10.23;7.43;;;;;;;17.29;63.36;100251.19;5015960;28;20298;-74
2023/05/14 06:40:00;;;;;;;8.20;4.80;;;;;;;17.21;65.40;100254.16;5018293;28;20641;-77
2023/05/14 06:42:27;;;;;;;4.50;4.20;;;;;;;17.10;67.83;100257.53;5035892;28;20195;-74
2023/05/14 06:44:54;;;;;;;5.50;4.53;;;;;;;16.91;69.53;100263.06;5035451;28;20223;-77
2023/05/14 06:47:21;;;;;;;5.53;5.07;;;;;;;16.71;70.88;100265.06;5034958;28;20216;-74
2023/05/14 06:49:49;;;;;;;5.83;4.70;;;;;;;16.52;70.80;100282.09;5034726;28;20209;-83
2023/05/14 06:52:16;;;;;;;5.90;5.47;;;;;;;16.37;75.11;100286.91;5035665;28;20199;-72
2023/05/14 06:54:43;;;;;;;5.60;5.20;;;;;;;16.25;74.43;100276.00;5033580;28;21048;-73
2023/05/14 06:57:09;;;;;;;6.97;6.13;;;;;;;16.11;74.52;100270.94;5031763;28;20260;-75
2023/05/14 06:59:36;;;;;;;6.93;6.23;;;;;;;15.98;75.33;100272.63;5020430;28;20661;-76
2023/05/14 07:02:03;;;;;;;7.07;5.13;;;;;;;15.89;75.81;100273.09;5019882;28;20193;-73
2023/05/14 07:04:30;;;;;;;5.87;5.43;;;;;;;15.76;76.20;100260.53;5015196;28;20264;-74
2023/05/14 07:06:58;;;;;;;8.27;6.30;;;;;;;15.67;77.31;100269.84;5030797;28;20213;-79
2023/05/14 07:09:25;;;;;;;10.10;5.93;;;;;;;15.62;78.13;100272.34;5030606;28;20902;-76
2023/05/14 07:11:51;;;;;;;10.80;5.80;;;;;;;15.63;80.31;100263.25;5027386;28;20198;-78
2023/05/14 07:14:18;;;;;;;8.50;5.93;;;;;;;15.78;80.51;100254.97;5013904;28;20252;-74
2023/05/14 07:16:45;;;;;;;7.70;6.37;;;;;;;15.88;79.03;100264.22;5013929;28;20421;-75
2023/05/14 07:19:12;;;;;;;7.67;6.20;;;;;;;16.00;80.95;100252.84;5020197;28;20208;-77
2023/05/14 07:21:39;;;;;;;7.60;6.77;;;;;;;16.12;82.81;100256.50;5038831;28;20659;-78
2023/05/14 07:24:07;;;;;;;6.70;6.10;;;;;;;16.20;82.66;100250.91;5029934;28;20204;-75
2023/05/14 07:26:34;;;;;;;7.27;6.70;;;;;;;16.25;80.65;100246.53;5027813;28;20278;-79
2023/05/14 07:29:01;;;;;;;6.87;6.20;;;;;;;16.30;80.71;100249.41;5026398;28;20208;-78
2023/05/14 07:31:27;;;;;;;6.07;5.47;;;;;;;16.28;79.03;100239.91;5024079;28;20193;-76
2023/05/14 07:33:54;;;;;;;6.83;6.23;;;;;;;16.35;78.09;100228.13;5028638;28;20268;-77
2023/05/14 07:36:21;;;;;;;7.13;5.73;;;;;;;16.32;77.21;100222.34;5021321;28;20303;-78
2023/05/14 07:38:48;;;;;;;7.93;5.77;;;;;;;16.40;76.94;100222.09;5019542;28;20197;-76
2023/05/14 07:41:16;;;;;;;7.77;6.33;;;;;;;16.46;77.11;100226.66;5026909;28;20279;-76
2023/05/14 07:43:43;;;;;;;9.93;6.13;;;;;;;16.49;77.08;100232.41;5019473;28;20204;-75
2023/05/14 07:46:10;;;;;;;10.20;6.77;;;;;;;16.50;78.83;100239.41;5021978;28;20206;-74
2023/05/14 07:48:36;;;;;;;8.50;6.17;;;;;;;16.54;78.44;100245.16;5013682;28;20190;-73
2023/05/14 07:51:03;;;;;;;9.93;6.43;;;;;;;16.56;78.47;100248.44;5033294;28;20201;-71
2023/05/14 07:53:30;;;;;;;7.47;4.07;;;;;;;16.59;82.93;100246.19;5033725;28;20205;-64
2023/05/14 07:55:58;;;;;;;6.53;4.67;;;;;;;17.12;85.64;100255.47;5016775;28;20550;-68
2023/05/14 07:58:27;;;;;;;8.87;5.10;;;;;;;17.56;81.59;100246.41;5013754;28;20257;-67
2023/05/14 08:00:55;;;;;;;5.97;5.00;;;;;;;17.96;77.66;100242.22;5020672;28;20199;-67
2023/05/14 08:03:22;;;;;;;9.37;5.97;;;;;;;18.05;71.54;100241.69;5026208;28;20203;-68
2023/05/14 08:05:49;;;;;;;5.93;5.23;;;;;;;18.30;76.31;100230.81;5013657;28;20190;-68
2023/05/14 08:08:15;;;;;;;6.60;5.93;;;;;;;18.72;73.45;100244.09;4999863;28;20571;-67
2023/05/14 08:10:42;;;;;;;6.90;6.30;;;;;;;18.85;68.87;100253.84;5031150;28;20212;-69
2023/05/14 08:13:09;;;;;;;15.87;10.40;;;;;;;18.74;71.58;100273.50;5030453;28;20201;-68
2023/05/14 08:15:37;;;;;;;10.63;8.67;;;;;;;18.49;73.67;100267.41;5031016;28;20203;-68
2023/05/14 08:18:04;;;;;;;9.93;7.37;;;;;;;18.30;74.57;100265.78;5031484;28;20229;-69
2023/05/14 08:20:31;;;;;;;8.27;7.33;;;;;;;18.28;75.67;100275.94;5030376;28;20201;-67
2023/05/14 08:22:58;;;;;;;8.43;7.73;;;;;;;18.13;74.90;100280.91;5032664;28;20195;-68
2023/05/14 08:25:25;;;;;;;9.53;8.53;;;;;;;18.02;75.74;100292.41;5032446;28;20669;-67
2023/05/14 08:27:53;;;;;;;9.60;8.63;;;;;;;17.90;77.09;100302.25;5023828;28;20198;-67
2023/05/14 08:30:20;;;;;;;9.33;8.43;;;;;;;17.65;78.46;100301.50;5011640;28;20756;-67
2023/05/14 08:32:51;;;;;;;9.80;8.97;;;;;;;17.56;79.44;100316.25;5012484;28;20668;-68
2023/05/14 08:35:18;;;;;;;9.70;8.80;;;;;;;17.37;78.79;100311.84;5012850;28;20216;-67
2023/05/14 08:37:45;;;;;;;9.53;8.57;;;;;;;17.30;81.17;100327.19;5030877;28;20298;-67
2023/05/14 08:40:12;;;;;;;10.37;9.40;;;;;;;17.10;81.07;100319.28;5032756;28;20264;-67
2023/05/14 08:42:40;;;;;;;10.23;9.20;;;;;;;16.85;81.91;100304.19;5032604;28;20204;-66
2023/05/14 08:45:13;;;;;;;10.10;9.10;;;;;;;16.68;83.03;100308.41;5032685;28;20280;-66
2023/05/14 08:47:40;;;;;;;12.20;9.03;;;;;;;16.54;84.24;100314.91;5032888;28;20188;-66
2023/05/14 08:50:09;;;;;;;16.23;11.00;;;;;;;16.42;85.09;100313.94;5025423;28;20190;-66
2023/05/14 08:52:35;;;;;;;9.00;8.20;;;;;;;16.34;85.44;100314.97;5012815;28;20197;-66
2023/05/14 08:55:05;;;;;;;13.40;10.53;;;;;;;16.37;86.74;100316.41;5012924;28;20241;-66
2023/05/14 08:57:33;;;;;;;14.67;12.03;;;;;;;16.40;86.36;100318.66;5011759;28;20221;-65
2023/05/14 09:00:00;;;;;;;7.73;7.03;;;;;;;16.25;82.78;100310.06;5012025;28;20224;-66
2023/05/14 09:02:29;;;;;;;18.90;10.40;;;;;;;16.25;78.93;100321.59;5018706;28;20193;-65
2023/05/14 09:04:58;;;;;;;11.10;9.17;;;;;;;16.09;80.48;100321.25;5017425;28;20190;-65
2023/05/14 09:07:26;;;;;;;9.50;7.60;;;;;;;16.06;81.72;100294.88;5011781;28;20613;-66
2023/05/14 09:09:54;;;;;;;7.93;7.17;;;;;;;16.08;81.87;100288.25;5012693;28;20198;-66
2023/05/14 09:12:21;;;;;;;7.43;6.87;;;;;;;16.14;81.29;100297.31;5012292;28;20201;-65
2023/05/14 09:14:49;;;;;;;10.67;8.73;;;;;;;16.13;80.06;100299.16;5012571;28;20724;-66
2023/05/14 09:17:16;;;;;;;10.90;9.80;;;;;;;16.17;81.78;100281.63;5012307;28;20257;-67
2023/05/14 09:19:46;;;;;;;10.30;8.60;;;;;;;16.29;82.71;100287.16;5012662;28;20193;-65
2023/05/14 09:22:14;;;;;;;8.87;7.83;;;;;;;16.21;82.33;100274.00;5030735;28;20273;-65
2023/05/14 09:24:43;;;;;;;8.63;7.03;;;;;;;16.28;81.81;100301.56;5033022;28;20237;-65
2023/05/14 09:27:18;;;;;;;7.70;7.10;;;;;;;16.08;81.86;100292.81;5032480;28;20201;-65
2023/05/14 09:29:44;;;;;;;8.30;7.67;;;;;;;15.87;82.32;100275.13;5019843;28;20225;-66
2023/05/14 09:32:11;;;;;;;8.07;7.27;;;;;;;15.88;83.06;100282.13;5012208;28;20198;-65
2023/05/14 09:34:38;;;;;;;8.10;7.20;;;;;;;15.92;82.65;100278.00;5012430;28;20248;-65
2023/05/14 09:37:06;;;;;;;7.37;6.67;;;;;;;16.06;82.20;100295.69;5012370;28;20272;-65
2023/05/14 09:39:35;;;;;;;7.90;7.40;;;;;;;16.15;82.86;100277.50;5021076;28;20201;-66
2023/05/14 09:42:03;;;;;;;10.70;8.67;;;;;;;16.21;82.16;100282.84;5031797;28;20677;-65
2023/05/14 09:44:30;;;;;;;8.23;7.47;;;;;;;16.33;83.78;100285.69;5031846;28;20201;-65
2023/05/14 09:46:57;;;;;;;8.87;7.97;;;;;;;16.29;82.62;100265.72;5031501;28;20624;-68
2023/05/14 09:49:24;;;;;;;16.73;10.83;;;;;;;16.16;83.33;100252.38;5032012;28;20205;-65
2023/05/14 09:51:51;;;;;;;12.63;11.43;;;;;;;16.12;84.98;100245.78;5019454;28;20222;-65
2023/05/14 09:54:18;;;;;;;24.10;13.73;;;;;;;16.06;85.31;100236.75;5012305;28;20191;-65
2023/05/14 09:56:45;;;;;;;14.07;11.43;;;;;;;16.01;84.86;100233.03;5012469;28;20257;-65
2023/05/14 09:59:13;;;;;;;9.37;8.47;;;;;;;16.01;83.54;100231.19;5012533;28;20267;-65
2023/05/14 10:01:42;;;;;;;8.83;8.20;;;;;;;16.14;83.57;100238.34;5012388;28;20206;-66
2023/05/14 10:04:10;;;;;;;8.33;7.50;;;;;;;16.21;81.90;100215.00;5019969;28;20201;-65
2023/05/14 10:06:39;;;;;;;7.90;7.17;;;;;;;16.29;80.46;100226.28;5013198;28;20636;-65
2023/05/14 10:09:11;;;;;;;8.30;7.50;;;;;;;16.22;81.12;100230.06;5011793;28;20284;-65
2023/05/14 10:11:41;;;;;;;8.93;8.20;;;;;;;16.11;83.73;100233.41;5012632;28;20222;-66
2023/05/14 10:14:09;;;;;;;10.17;9.20;;;;;;;16.18;84.76;100239.56;5012725;28;20539;-67
2023/05/14 10:16:43;;;;;;;8.80;8.00;;;;;;;16.18;84.13;100228.84;5031554;28;20292;-67
2023/05/14 10:19:11;;;;;;;10.20;8.13;;;;;;;16.11;83.22;100230.72;5031335;28;20623;-66
2023/05/14 10:21:40;;;;;;;9.40;8.63;;;;;;;16.04;84.66;100238.00;5031147;28;20643;-67
2023/05/14 10:24:09;;;;;;;8.97;8.33;;;;;;;16.00;83.72;100234.09;5030832;28;20734;-65
2023/05/14 10:26:38;;;;;;;9.17;8.40;;;;;;;16.08;84.56;100240.00;5026236;28;20194;-65
2023/05/14 10:29:05;;;;;;;8.43;7.93;;;;;;;16.08;83.56;100239.22;5011204;28;20288;-65
2023/05/14 10:31:52;;;;;;;8.83;8.13;;;;;;;16.10;83.42;100251.34;5012295;28;20197;-66
2023/05/14 10:34:33;;;;;;;8.07;7.33;;;;;;;16.03;81.63;100237.16;5011830;28;20204;-66
2023/05/14 10:37:01;;;;;;;9.07;8.33;;;;;;;16.02;83.39;100234.69;5011512;28;20607;-67
2023/05/14 10:39:41;;;;;;;8.80;8.07;;;;;;;16.02;84.81;100224.81;5011701;28;20638;-69
2023/05/14 10:42:08;;;;;;;9.37;8.60;;;;;;;16.12;84.29;100218.97;5011883;28;20201;-70
2023/05/14 10:44:35;;;;;;;8.87;8.03;;;;;;;16.15;83.30;100218.53;5012512;28;20256;-71
2023/05/14 10:47:04;;;;;;;9.23;8.30;;;;;;;16.30;83.71;100194.94;5031483;28;20200;-70
2023/05/14 10:49:31;;;;;;;9.97;8.97;;;;;;;16.46;82.25;100200.63;5031287;28;20200;-70
2023/05/14 10:51:58;;;;;;;9.07;8.30;;;;;;;16.61;79.13;100197.69;5031229;28;20204;-71
2023/05/14 10:54:27;;;;;;;10.90;9.90;;;;;;;16.79;79.43;100197.72;5030988;28;20194;-70
2023/05/14 10:56:54;;;;;;;9.27;8.63;;;;;;;16.94;79.00;100201.72;5026920;28;20190;-68
2023/05/14 10:59:27;;;;;;;9.90;8.97;;;;;;;17.10;78.54;100198.47;5011424;28;20205;-70
2023/05/14 11:01:53;;;;;;;8.73;8.07;;;;;;;17.26;76.76;100186.34;5011231;28;20191;-70
2023/05/14 11:04:23;;;;;;;9.70;9.13;;;;;;;17.23;77.23;100178.75;5020214;28;20231;-70
2023/05/14 11:06:53;;;;;;;9.77;8.93;;;;;;;17.17;77.17;100193.03;5031163;28;20191;-70
2023/05/14 11:09:21;;;;;;;9.57;8.47;;;;;;;17.14;78.48;100194.31;5029198;28;20206;-69
2023/05/14 11:11:48;;;;;;;10.37;9.37;;;;;;;17.20;78.08;100187.25;5031049;28;20194;-70
2023/05/14 11:14:15;;;;;;;11.80;10.87;;;;;;;17.34;77.94;100178.81;5030873;28;20194;-69
2023/05/14 11:16:42;;;;;;;13.10;12.13;;;;;;;17.51;77.54;100184.47;5031432;28;20577;-70
2023/05/14 11:19:10;;;;;;;10.80;9.83;;;;;;;17.59;75.61;100182.28;5030796;28;20224;-70
2023/05/14 11:21:39;;;;;;;9.47;8.63;;;;;;;17.60;77.05;100173.19;5027082;28;20202;-70
2023/05/14 11:24:06;;;;;;;10.20;9.40;;;;;;;17.52;76.61;100172.69;5015077;28;20194;-71
2023/05/14 11:26:33;;;;;;;9.00;8.50;;;;;;;17.64;77.71;100163.63;5015229;28;20198;-71